Station info - map view · info · telemetry · weather · raw · status · beacons · messages · bulletins · browse · moving · my account
Callsign, ship name or locator: Clear       
It is possible to search using wildcards (*?) after a prefix. Example: OH*
APRS station DM2KGB-9 - show graphs
Map loading...
Mic-E message: En route
Location: 51°34.84' N 14°10.09' E - locator JO71CN09EI - show map - static map
430.9 yards Southwest bearing 208° from Welzow, Brandenburg, Germany [?]
1.3 miles South bearing 177° from Neupetershain, Brandenburg, Germany
41.0 miles Northeast bearing 27° from Dresden, Direktionsbezirk Dresden, Saxony, Germany
72.7 miles Southeast bearing 153° from Berlin, Berlin, Germany
Last position: 2020-09-29 02:27:46 EDT (6h43m ago)
2020-09-29 08:27:46 CEST local time at Welzow, Germany [?]
Altitude: 302 ft
Course: 266°
Speed: 15 MPH
Device: Yaesu: FTM-350 (rig)
Last path: DM2KGB-9>UQ3T84 via WIDE1-1,WIDE2-1,qAR,DB0LS (good)
Positions stored: 4328
Other SSIDs: DM2KGB-7
Stations near current position of DM2KGB-9 - show more
callsign distance last heard - EDT      callsign distance last heard - EDT
EW4138526.3 yards 359°2020-09-29 09:08:34 B2374A-350.6 miles 130°2020-09-04 13:23:29
A2294A-940.7 miles 206°2020-09-04 12:48:49 A6575A-430.7 miles 156°2020-09-04 13:05:26
B371A-490.8 miles 340°2020-09-04 13:15:49 A699A-750.9 miles 348°2020-09-04 12:42:37
A8194A-251.1 miles 3°2020-09-04 13:11:54 B3088A-11.1 miles 43°2020-09-04 13:26:18
A7132A-981.2 miles 7°2020-09-04 13:07:37 B480A-641.2 miles 177°2020-09-04 13:16:08
A7847A-931.3 miles 91°2020-09-04 13:10:29 A5964A-911.4 miles 9°2020-09-04 13:03:09
A2209A-881.4 miles 341°2020-09-04 12:48:32 B304A-961.6 miles 40°2020-09-04 13:15:28
A5075A-671.7 miles 100°2020-09-04 12:59:35 A4752A-821.7 miles 343°2020-09-04 12:58:28
D553A-821.8 miles 39°2020-09-04 13:20:02 A4607A-701.8 miles 181°2020-09-04 12:57:48
A6454A-281.8 miles 359°2020-09-04 13:04:58 A4851A-651.9 miles 95°2020-09-04 12:58:45
Stations which heard DM2KGB-9 directly on radio –
callsign pkts first heard - EDT last heard longest (tx => rx) longest at - EDT
DB0SPN 233 2020-09-03 05:39:30 2020-09-29 02:26:11 JO61VX > JO71ER 29.9 miles 124° 2020-09-12 03:45:50
DB0HRO 5 2020-09-12 09:49:12 2020-09-13 06:39:06 JO64GI > JO64AD 23.9 miles 236° 2020-09-12 09:49:12
DO0MAL 1 2020-09-12 07:08:54 2020-09-12 07:08:54 JO63QU > JO63IS 25.8 miles 258° 2020-09-12 07:08:54
DB0FUZ 18 2020-09-12 04:04:38 2020-09-12 04:53:48 JO62SG > JO62TK 10.4 miles 5° 2020-09-12 04:04:38
DB0WBE 1 2020-09-09 08:32:26 2020-09-09 08:32:26 JO71BK > JO61SL 25.7 miles 277° 2020-09-09 08:32:26
DB0SPB 3 2020-09-07 04:12:21 2020-09-29 02:27:49 JO71CN > JO70IX 48.4 miles 152° 2020-09-29 02:27:49
DM4JO-10 24 2020-09-12 06:47:11 2020-09-12 07:28:12 JO63PX > JO63PM 32.8 miles 185° 2020-09-12 07:28:12
DB0LDS 22 2020-09-12 03:56:51 2020-09-17 09:45:12 JO62SQ > JO62TH 24.9 miles 175° 2020-09-12 05:45:55
DB0HGW-10 8 2020-09-12 07:03:51 2020-09-12 07:31:32 JO63PS > JO64QC 23.1 miles 5° 2020-09-12 07:03:51
DB0LS 48 2020-09-04 02:19:44 2020-09-29 02:27:46 JO71DQ > JO61VM 22.0 miles 239° 2020-09-23 07:12:55
DO0RM-10 1 2020-09-12 07:05:32 2020-09-12 07:05:32 JO63PT > JO63HJ 40.7 miles 226° 2020-09-12 07:05:32
DB0BLO 2 2020-09-12 05:15:03 2020-09-12 05:45:57 JO62SQ > JO62RM 10.3 miles 199° 2020-09-12 05:45:57
DB0WOL 13 2020-09-12 04:57:14 2020-09-12 06:24:54 JO73AF > JO62XR 34.8 miles 184° 2020-09-12 06:24:54
DL1BWU 2 2020-09-12 05:51:48 2020-09-12 05:59:18 JO62UU > JO62US 7.5 miles 184° 2020-09-12 05:59:18
DC7JZB-10 5 2020-09-12 04:07:59 2020-09-12 04:19:24 JO62SI > JO62QJ 7.8 miles 305° 2020-09-12 04:07:59
DB0LUD 2 2020-09-12 03:44:23 2020-09-12 04:16:52 JO61VW > JO62PH 32.6 miles 320° 2020-09-12 03:44:23
DB0OLL 2 2020-09-24 02:10:02 2020-09-24 02:22:13 JO71CP > JO71IC 43.1 miles 151° 2020-09-24 02:10:02
DL1BRG-10 5 2020-09-12 06:13:53 2020-09-12 06:27:29 JO63XG > JO63RC 23.7 miles 241° 2020-09-12 06:27:29
DB0BBB 14 2020-09-12 04:46:37 2020-09-12 05:48:27 JO62RM > JO62SQ 13.0 miles 25° 2020-09-12 04:46:37
DB0TGO-15 1 2020-09-12 04:57:12 2020-09-12 04:57:12 JO62RM > JO62ON 11.6 miles 290° 2020-09-12 04:57:12
DM0TT 18 2020-09-12 04:13:37 2020-09-12 05:52:41 JO62SS > JO62RL 20.1 miles 193° 2020-09-12 05:52:41
DB0AJW 2 2020-09-12 04:20:42 2020-09-12 05:50:59 JO62SS > JO62PM 20.7 miles 214° 2020-09-12 05:50:59
DB0FRO 1 2020-09-12 04:00:19 2020-09-12 04:00:19 JO62TE > JO72GH 39.6 miles 78° 2020-09-12 04:00:19
DO8OP-11 8 2020-09-12 04:20:16 2020-09-12 05:52:38 JO62SS > JO62NM 25.4 miles 226° 2020-09-12 05:52:38
DB0PIB 39 2020-09-04 02:11:23 2020-09-29 02:27:57 JO61VW > JO71EC 63.5 miles 156° 2020-09-12 03:45:14

Only position packets which were originated by the station are shown here. The range statistics show some extra long hops, because some digipeaters do not correctly add themselves to the digipeater path. Please check the raw packets.
About this site
This page shows real-time information collected from the Automatic Position Reporting System Internet network (APRS-IS). APRS is used by amateur (ham) radio operators to transmit real-time position information, weather data, telemetry and messages over the radio. A vehicle equipped with a GPS receiver, a VHF transmitter or HF transceiver and a small computer device called a tracker transmits it's location, speed and course in a small data packet, which is then received by a nearby iGate receiving site which forwards the packet on the Internet. Systems connected to the Internet can send information on the APRS-IS without a radio transmitter, or collect and display information transmitted anywhere in the world.
User guide · FAQ · Blog · Discussion group · Linking to aprs.fi · AIS sites · Service status · Database statistics · Advertising on aprs.fi · Technical details · API · Change log · Planned changes · Credits and thanks · Terms Of Service · iPhone/iPad APRS